createdAt,value
2019-01-16T00:00:10.686Z,81.60
2019-01-16T00:01:05.650Z,81.70
2019-01-16T00:02:08.243Z,81.50
2019-01-16T00:03:05.316Z,81.50
2019-01-16T00:04:05.423Z,81.80
2019-01-16T00:05:05.561Z,81.40
2019-01-16T00:06:08.328Z,81.70
2019-01-16T00:07:07.965Z,81.80
2019-01-16T00:08:06.103Z,81.80
2019-01-16T00:09:05.123Z,81.60
2019-01-16T00:10:05.395Z,81.70
2019-01-16T00:11:05.531Z,81.40
2019-01-16T00:12:08.292Z,81.60
2019-01-16T00:13:07.929Z,81.50
2019-01-16T00:14:08.355Z,81.40
2019-01-16T00:15:05.299Z,81.50
2019-01-16T00:16:05.423Z,81.40
2019-01-16T00:17:08.120Z,81.60
2019-01-16T00:18:05.103Z,81.50
2019-01-16T00:19:05.164Z,81.50
2019-01-16T00:20:05.238Z,81.70
2019-01-16T00:21:07.803Z,81.50
2019-01-16T00:22:08.212Z,81.60
2019-01-16T00:23:05.223Z,81.60
2019-01-16T00:24:05.390Z,81.40
2019-01-16T00:25:05.537Z,81.60
2019-01-16T00:26:08.137Z,81.60
2019-01-16T00:27:07.688Z,81.70
2019-01-16T00:28:08.149Z,81.60
2019-01-16T00:29:05.218Z,81.60
2019-01-16T00:30:05.366Z,81.90
2019-01-16T00:31:05.376Z,81.60
2019-01-16T00:32:08.427Z,81.50
2019-01-16T00:33:07.888Z,81.60
2019-01-16T00:34:08.555Z,81.50
2019-01-16T00:35:08.091Z,81.70
2019-01-16T00:36:05.061Z,81.40
2019-01-16T00:37:05.095Z,81.50
2019-01-16T00:38:05.185Z,81.60
2019-01-16T00:39:05.343Z,81.80
2019-01-16T00:40:08.128Z,81.80
2019-01-16T00:41:05.116Z,81.80
2019-01-16T00:42:05.181Z,81.50
2019-01-16T00:43:07.775Z,81.60
2019-01-16T00:44:08.398Z,81.60
2019-01-16T00:45:05.335Z,81.90
2019-01-16T00:46:07.955Z,81.70
2019-01-16T00:47:05.986Z,81.70
2019-01-16T00:48:04.976Z,81.80
2019-01-16T00:49:05.192Z,81.70
2019-01-16T00:50:07.928Z,81.80
2019-01-16T00:51:05.891Z,81.60
2019-01-16T00:52:07.953Z,81.60
2019-01-16T00:53:06.058Z,81.60
2019-01-16T00:54:05.209Z,81.60
2019-01-16T00:55:07.794Z,81.60
2019-01-16T00:56:05.718Z,81.60
2019-01-16T00:57:05.721Z,81.70
2019-01-16T00:58:08.327Z,81.50
2019-01-16T00:59:07.918Z,81.50
2019-01-16T01:00:05.902Z,81.60
2019-01-16T01:01:04.960Z,81.50
2019-01-16T01:02:05.040Z,81.40
2019-01-16T01:03:05.352Z,81.50
2019-01-16T01:04:07.902Z,81.50
2019-01-16T01:05:05.852Z,81.50
2019-01-16T01:06:08.428Z,81.50
2019-01-16T01:07:08.022Z,81.50
2019-01-16T01:08:05.022Z,81.50
2019-01-16T01:09:05.153Z,81.40
2019-01-16T01:10:05.244Z,81.50
2019-01-16T01:11:05.474Z,81.70
2019-01-16T01:12:05.720Z,81.50
2019-01-16T01:13:08.272Z,81.50
2019-01-16T01:14:05.465Z,81.60
2019-01-16T01:15:05.615Z,81.50
2019-01-16T01:16:08.206Z,81.90
2019-01-16T01:17:07.771Z,81.80
2019-01-16T01:18:10.984Z,81.70
2019-01-16T01:19:10.131Z,81.90
2019-01-16T01:20:05.111Z,81.90
2019-01-16T01:21:15.343Z,81.60
2019-01-16T01:22:05.656Z,81.60
2019-01-16T01:23:08.302Z,81.40
2019-01-16T01:24:05.399Z,81.60
2019-01-16T01:25:08.019Z,81.60
2019-01-16T01:26:06.147Z,81.60
2019-01-16T01:27:12.909Z,81.70
2019-01-16T01:28:11.037Z,81.60
2019-01-16T01:29:05.031Z,81.60
2019-01-16T01:30:08.044Z,81.70
2019-01-16T01:31:07.508Z,81.70
2019-01-16T01:32:08.121Z,81.70
2019-01-16T01:33:05.014Z,81.60
2019-01-16T01:34:05.035Z,81.50
2019-01-16T01:35:05.376Z,81.70
2019-01-16T01:36:05.554Z,81.70
2019-01-16T01:37:05.665Z,81.80
2019-01-16T01:38:08.471Z,81.80
2019-01-16T01:39:05.402Z,81.70
2019-01-16T01:40:07.938Z,81.70
2019-01-16T01:41:05.949Z,81.70
2019-01-16T01:42:04.940Z,81.60
2019-01-16T01:43:05.058Z,81.60
2019-01-16T01:44:07.770Z,81.60
2019-01-16T01:45:05.734Z,81.60
2019-01-16T01:46:08.445Z,81.60
2019-01-16T01:47:05.439Z,81.60
2019-01-16T01:48:08.071Z,81.60
2019-01-16T01:49:07.652Z,82.00
2019-01-16T01:50:05.555Z,81.60
2019-01-16T01:51:05.620Z,81.60
2019-01-16T01:52:08.257Z,81.70
2019-01-16T01:53:05.166Z,81.60
2019-01-16T01:54:05.320Z,82.00
2019-01-16T01:55:05.436Z,81.60
2019-01-16T01:56:08.072Z,81.70
2019-01-16T01:57:05.011Z,81.60
2019-01-16T01:58:05.061Z,81.70
2019-01-16T01:59:05.198Z,82.00
2019-01-16T02:00:05.217Z,81.70
2019-01-16T02:01:05.245Z,81.70
2019-01-16T02:02:07.993Z,82.10
2019-01-16T02:03:06.054Z,82.10
2019-01-16T02:04:05.311Z,82.00
2019-01-16T02:05:07.941Z,82.10
2019-01-16T02:06:08.391Z,82.10
2019-01-16T02:07:07.886Z,82.10
2019-01-16T02:08:05.879Z,82.10
2019-01-16T02:09:07.677Z,81.60
2019-01-16T02:10:05.637Z,81.70
2019-01-16T02:11:05.716Z,81.60
2019-01-16T02:12:05.950Z,81.70
2019-01-16T02:13:07.572Z,81.50
2019-01-16T02:14:08.102Z,81.60
2019-01-16T02:15:05.009Z,81.60
2019-01-16T02:16:05.131Z,81.80
2019-01-16T02:17:07.835Z,81.60
2019-01-16T02:18:05.959Z,81.70
2019-01-16T02:19:05.010Z,82.00
2019-01-16T02:20:07.609Z,81.70
2019-01-16T02:21:05.497Z,81.70
2019-01-16T02:22:05.594Z,81.70
2019-01-16T02:23:05.675Z,81.60
2019-01-16T02:24:08.269Z,81.70
2019-01-16T02:25:05.186Z,81.70
2019-01-16T02:26:07.702Z,81.60
2019-01-16T02:27:13.390Z,81.70
2019-01-16T02:28:05.377Z,81.70
2019-01-16T02:29:05.506Z,81.70
2019-01-16T02:30:05.935Z,81.70
2019-01-16T02:31:05.072Z,81.70
2019-01-16T02:32:10.246Z,81.80
2019-01-16T02:33:05.254Z,81.80
2019-01-16T02:34:05.315Z,81.80
2019-01-16T02:35:05.342Z,82.20
2019-01-16T02:36:07.994Z,81.90
2019-01-16T02:37:05.923Z,81.90
2019-01-16T02:38:05.993Z,82.10
2019-01-16T02:39:05.118Z,81.90
2019-01-16T02:40:07.827Z,81.90
2019-01-16T02:41:05.906Z,82.00
2019-01-16T02:42:05.200Z,81.90
2019-01-16T02:43:05.213Z,82.00
2019-01-16T02:44:05.385Z,82.00
2019-01-16T02:45:05.436Z,82.00
2019-01-16T02:46:08.151Z,82.10
2019-01-16T02:47:07.747Z,82.00
2019-01-16T02:48:05.782Z,82.10
2019-01-16T02:49:08.416Z,82.10
2019-01-16T02:50:05.419Z,82.10
2019-01-16T02:51:05.494Z,82.10
2019-01-16T02:52:08.083Z,83.00
2019-01-16T02:53:04.926Z,83.00
2019-01-16T02:54:07.478Z,83.00
2019-01-16T02:55:05.414Z,83.00
2019-01-16T02:56:05.447Z,83.00
2019-01-16T02:57:05.489Z,82.30
2019-01-16T02:58:08.051Z,82.20
2019-01-16T02:59:04.985Z,82.30
2019-01-16T03:00:05.733Z,82.20
2019-01-16T03:01:05.918Z,82.20
2019-01-16T03:02:04.960Z,82.20
2019-01-16T03:03:04.999Z,82.10
2019-01-16T03:04:05.364Z,82.20
2019-01-16T03:05:05.370Z,82.20
2019-01-16T03:06:05.034Z,82.20
2019-01-16T03:07:07.768Z,82.20
2019-01-16T03:08:05.711Z,82.20
2019-01-16T03:09:05.781Z,82.10
2019-01-16T03:10:05.837Z,82.10
2019-01-16T03:11:08.460Z,82.10
2019-01-16T03:12:05.445Z,82.10
2019-01-16T03:13:05.606Z,82.10
2019-01-16T03:14:10.729Z,82.10
2019-01-16T03:15:08.272Z,82.10
2019-01-16T03:16:05.172Z,82.10
2019-01-16T03:17:05.364Z,82.10
2019-01-16T03:18:05.475Z,82.10
2019-01-16T03:19:05.686Z,82.10
2019-01-16T03:20:05.793Z,82.10
2019-01-16T03:21:05.909Z,82.10
2019-01-16T03:22:04.980Z,82.10
2019-01-16T03:23:07.620Z,82.20
2019-01-16T03:24:08.161Z,82.10
2019-01-16T03:25:05.143Z,82.20
2019-01-16T03:26:05.181Z,82.20
2019-01-16T03:27:05.191Z,82.20
2019-01-16T03:28:07.804Z,82.20
2019-01-16T03:29:05.786Z,82.20
2019-01-16T03:30:05.639Z,82.20
2019-01-16T03:31:05.046Z,82.20
2019-01-16T03:32:08.662Z,82.20
2019-01-16T03:33:10.897Z,82.20
2019-01-16T03:34:08.411Z,82.30
2019-01-16T03:35:05.412Z,82.30
2019-01-16T03:36:05.506Z,82.20
2019-01-16T03:37:05.684Z,82.20
2019-01-16T03:38:05.398Z,82.20
2019-01-16T03:39:08.183Z,82.20
2019-01-16T03:40:07.827Z,82.30
2019-01-16T03:41:08.324Z,82.30
2019-01-16T03:42:05.394Z,82.30
2019-01-16T03:43:10.657Z,82.30
2019-01-16T03:44:08.170Z,82.20
2019-01-16T03:45:05.079Z,82.20
2019-01-16T03:46:05.167Z,82.20
2019-01-16T03:47:07.710Z,82.30
2019-01-16T03:48:08.160Z,82.30
2019-01-16T03:49:14.083Z,82.30
2019-01-16T03:50:05.138Z,82.30
2019-01-16T03:51:05.446Z,82.30
2019-01-16T03:52:05.678Z,82.40
2019-01-16T03:53:05.797Z,82.40
2019-01-16T03:54:05.006Z,82.40
2019-01-16T03:55:05.062Z,82.50
2019-01-16T03:56:07.904Z,82.50
2019-01-16T03:57:08.514Z,82.50
2019-01-16T03:58:05.507Z,82.60
2019-01-16T03:59:05.569Z,82.50
2019-01-16T04:00:05.647Z,82.50
2019-01-16T04:01:08.253Z,82.60
2019-01-16T04:02:07.776Z,82.60
2019-01-16T04:03:05.743Z,82.60
2019-01-16T04:04:05.808Z,82.70
2019-01-16T04:05:06.034Z,82.70
2019-01-16T04:06:07.663Z,83.00
2019-01-16T04:07:05.654Z,83.00
2019-01-16T04:08:10.728Z,82.40
2019-01-16T04:09:08.261Z,82.70
2019-01-16T04:10:05.229Z,82.40
2019-01-16T04:11:05.418Z,82.60
2019-01-16T04:12:13.175Z,82.40
2019-01-16T04:13:05.063Z,82.60
2019-01-16T04:14:07.791Z,82.50
2019-01-16T04:15:05.817Z,82.50
2019-01-16T04:16:08.420Z,82.50
2019-01-16T04:17:07.983Z,82.50
2019-01-16T04:18:08.501Z,82.50
2019-01-16T04:19:05.574Z,82.40
2019-01-16T04:20:05.715Z,82.50
2019-01-16T04:21:05.779Z,82.50
2019-01-16T04:22:06.038Z,82.50
2019-01-16T04:23:07.686Z,82.90
2019-01-16T04:24:05.670Z,82.90
2019-01-16T04:25:10.747Z,82.60
2019-01-16T04:26:05.763Z,82.60
2019-01-16T04:27:05.849Z,82.60
2019-01-16T04:28:08.538Z,82.40
2019-01-16T04:29:05.512Z,82.50
2019-01-16T04:30:05.224Z,82.70
2019-01-16T04:31:08.038Z,82.60
2019-01-16T04:32:07.518Z,82.60
2019-01-16T04:33:05.473Z,82.60
2019-01-16T04:34:05.622Z,82.60
2019-01-16T04:35:05.688Z,82.70
2019-01-16T04:36:05.742Z,82.60
2019-01-16T04:37:05.960Z,82.60
2019-01-16T04:38:07.583Z,82.40
2019-01-16T04:39:05.495Z,82.30
2019-01-16T04:40:05.772Z,82.60
2019-01-16T04:41:08.450Z,82.60
2019-01-16T04:42:05.406Z,82.60
2019-01-16T04:43:05.475Z,82.70
2019-01-16T04:44:05.668Z,82.60
2019-01-16T04:45:05.726Z,82.50
2019-01-16T04:46:08.326Z,82.30
2019-01-16T04:47:05.400Z,82.90
2019-01-16T04:48:05.578Z,82.70
2019-01-16T04:49:05.648Z,82.50
2019-01-16T04:50:08.215Z,82.70
2019-01-16T04:51:05.110Z,82.70
2019-01-16T04:52:05.137Z,82.80
2019-01-16T04:53:05.172Z,82.40
2019-01-16T04:54:05.319Z,82.90
2019-01-16T04:55:05.385Z,82.30
2019-01-16T04:56:07.962Z,82.40
2019-01-16T04:57:05.913Z,82.40
2019-01-16T04:58:08.454Z,82.70
2019-01-16T04:59:05.422Z,82.80
2019-01-16T05:00:05.505Z,82.40
2019-01-16T05:01:05.575Z,82.40
2019-01-16T05:02:05.665Z,82.70
2019-01-16T05:03:08.212Z,82.30
2019-01-16T05:04:05.163Z,82.30
2019-01-16T05:05:05.203Z,82.30
2019-01-16T05:06:05.277Z,82.30
2019-01-16T05:07:07.908Z,82.30
2019-01-16T05:08:05.824Z,82.20
2019-01-16T05:09:05.925Z,82.60
2019-01-16T05:10:06.076Z,82.20
2019-01-16T05:11:07.690Z,82.70
2019-01-16T05:12:08.234Z,82.30
2019-01-16T05:13:07.837Z,82.40
2019-01-16T05:14:08.317Z,82.40
2019-01-16T05:15:05.254Z,82.40
2019-01-16T05:16:05.356Z,82.40
2019-01-16T05:17:05.441Z,82.30
2019-01-16T05:18:05.632Z,82.30
2019-01-16T05:19:05.756Z,82.30
2019-01-16T05:20:08.326Z,82.20
2019-01-16T05:21:05.351Z,82.20
2019-01-16T05:22:08.108Z,82.20
2019-01-16T05:23:05.187Z,82.20
2019-01-16T05:24:05.360Z,82.20
2019-01-16T05:25:12.398Z,82.20
2019-01-16T05:26:05.499Z,82.10
2019-01-16T05:27:05.656Z,82.10
2019-01-16T05:28:05.735Z,82.10
2019-01-16T05:29:05.864Z,82.30
2019-01-16T05:30:05.299Z,82.10
2019-01-16T05:31:10.407Z,82.20
2019-01-16T05:32:05.448Z,82.20
2019-01-16T05:33:05.678Z,82.40
2019-01-16T05:34:05.835Z,82.30
2019-01-16T05:35:08.439Z,82.30
2019-01-16T05:36:05.384Z,82.40
2019-01-16T05:37:05.468Z,82.30
2019-01-16T05:38:10.666Z,82.30
2019-01-16T05:39:08.211Z,82.40
2019-01-16T05:40:05.308Z,82.30
2019-01-16T05:41:10.412Z,82.00
2019-01-16T05:42:07.847Z,82.00
2019-01-16T05:43:05.824Z,82.00
2019-01-16T05:44:05.928Z,81.90
2019-01-16T05:45:05.095Z,81.90
2019-01-16T05:46:05.608Z,81.80
2019-01-16T05:47:05.719Z,81.80
2019-01-16T05:48:10.845Z,81.80
2019-01-16T05:49:08.282Z,81.90
2019-01-16T05:50:07.773Z,81.80
2019-01-16T05:51:05.698Z,81.70
2019-01-16T05:52:10.837Z,82.20
2019-01-16T05:53:08.379Z,82.00
2019-01-16T05:54:07.777Z,82.00
2019-01-16T05:55:05.693Z,81.90
2019-01-16T05:56:05.871Z,81.70
2019-01-16T05:57:05.877Z,81.70
2019-01-16T05:58:05.980Z,81.60
2019-01-16T05:59:07.607Z,82.20
2019-01-16T06:00:05.768Z,82.10
2019-01-16T06:01:08.341Z,81.60
2019-01-16T06:02:07.815Z,81.60
2019-01-16T06:03:05.747Z,81.60
2019-01-16T06:04:05.971Z,81.60
2019-01-16T06:05:07.675Z,81.60
2019-01-16T06:06:08.113Z,81.60
2019-01-16T06:07:05.199Z,81.60
2019-01-16T06:08:07.820Z,81.60
2019-01-16T06:09:08.281Z,81.60
2019-01-16T06:10:05.191Z,81.60
2019-01-16T06:11:05.230Z,82.10
2019-01-16T06:12:05.235Z,81.70
2019-01-16T06:13:05.392Z,81.70
2019-01-16T06:14:08.019Z,81.70
2019-01-16T06:15:05.931Z,81.70
2019-01-16T06:16:07.541Z,81.60
2019-01-16T06:17:05.679Z,81.60
2019-01-16T06:18:05.821Z,81.60
2019-01-16T06:19:05.969Z,81.70
2019-01-16T06:20:05.082Z,81.60
2019-01-16T06:21:07.757Z,81.60
2019-01-16T06:22:05.764Z,81.60
2019-01-16T06:23:11.077Z,81.60
2019-01-16T06:24:07.536Z,81.60
2019-01-16T06:25:07.990Z,81.70
2019-01-16T06:26:08.462Z,81.90
2019-01-16T06:27:05.412Z,81.80
2019-01-16T06:28:08.031Z,81.70
2019-01-16T06:29:05.069Z,81.60
2019-01-16T06:30:05.539Z,81.50
2019-01-16T06:31:08.168Z,81.60
2019-01-16T06:32:05.115Z,81.60
2019-01-16T06:33:05.169Z,82.00
2019-01-16T06:34:05.208Z,82.10
2019-01-16T06:35:07.927Z,81.90
2019-01-16T06:36:05.868Z,81.70
2019-01-16T06:37:06.117Z,82.10
2019-01-16T06:38:05.140Z,81.70
2019-01-16T06:39:05.241Z,81.70
2019-01-16T06:40:05.392Z,81.70
2019-01-16T06:41:13.169Z,81.60
2019-01-16T06:42:10.268Z,81.60
2019-01-16T06:43:07.826Z,81.60
2019-01-16T06:44:08.419Z,81.60
2019-01-16T06:45:08.009Z,81.60
2019-01-16T06:46:05.123Z,81.60
2019-01-16T06:47:07.765Z,81.60
2019-01-16T06:48:05.734Z,81.60
2019-01-16T06:49:05.811Z,81.70
2019-01-16T06:50:05.175Z,81.60
2019-01-16T06:51:05.383Z,81.60
2019-01-16T06:52:05.462Z,81.50
2019-01-16T06:53:05.508Z,81.50
2019-01-16T06:54:05.707Z,81.50
2019-01-16T06:55:05.908Z,81.50
2019-01-16T06:56:07.563Z,81.50
2019-01-16T06:57:05.463Z,81.50
2019-01-16T06:58:05.469Z,81.50
2019-01-16T06:59:07.944Z,81.50
2019-01-16T07:00:08.414Z,81.40
2019-01-16T07:01:05.412Z,81.40
2019-01-16T07:02:05.435Z,81.40
2019-01-16T07:03:05.088Z,81.30
2019-01-16T07:04:05.285Z,81.30
2019-01-16T07:05:05.415Z,81.30
2019-01-16T07:06:05.557Z,81.40
2019-01-16T07:07:05.614Z,81.30
2019-01-16T07:08:08.301Z,81.20
2019-01-16T07:09:10.433Z,81.30
2019-01-16T07:10:05.477Z,81.30
2019-01-16T07:11:05.529Z,81.40
2019-01-16T07:12:08.045Z,81.40
2019-01-16T07:13:06.113Z,81.30
2019-01-16T07:14:05.291Z,81.30
2019-01-16T07:15:05.417Z,81.20
2019-01-16T07:16:10.465Z,81.20
2019-01-16T07:17:10.618Z,81.40
2019-01-16T07:18:05.692Z,81.40
2019-01-16T07:19:08.358Z,81.30
2019-01-16T07:20:10.233Z,81.20
2019-01-16T07:21:07.838Z,81.30
2019-01-16T07:22:05.822Z,81.20
2019-01-16T07:23:08.600Z,81.30
2019-01-16T07:24:10.644Z,81.40
2019-01-16T07:25:08.082Z,81.30
2019-01-16T07:26:07.574Z,81.40
2019-01-16T07:27:05.566Z,81.40
2019-01-16T07:28:08.101Z,81.30
2019-01-16T07:29:05.077Z,81.40
2019-01-16T07:30:05.838Z,81.30
2019-01-16T07:31:05.887Z,81.30
2019-01-16T07:32:06.038Z,81.30
2019-01-16T07:33:07.641Z,81.30
2019-01-16T07:34:05.502Z,81.40
2019-01-16T07:35:05.485Z,81.30
2019-01-16T07:36:08.025Z,81.50
2019-01-16T07:37:12.671Z,81.60
2019-01-16T07:38:08.298Z,82.10
2019-01-16T07:39:05.374Z,81.70
2019-01-16T07:40:05.477Z,81.70
2019-01-16T07:41:05.661Z,81.70
2019-01-16T07:42:08.347Z,81.90
2019-01-16T07:43:07.858Z,81.90
2019-01-16T07:44:05.820Z,81.90
2019-01-16T07:45:05.941Z,82.00
2019-01-16T07:46:05.090Z,82.10
2019-01-16T07:47:07.803Z,82.20
2019-01-16T07:48:05.720Z,82.30
2019-01-16T07:49:08.247Z,82.20
2019-01-16T07:50:07.791Z,82.20
2019-01-16T07:51:05.778Z,82.40
2019-01-16T07:52:06.015Z,82.30
2019-01-16T07:53:07.824Z,82.60
2019-01-16T07:54:06.023Z,82.40
2019-01-16T07:55:05.153Z,82.40
2019-01-16T07:56:05.324Z,82.40
2019-01-16T07:57:05.376Z,82.50
2019-01-16T07:58:07.970Z,82.60
2019-01-16T07:59:05.940Z,82.50
2019-01-16T08:00:05.214Z,82.40
2019-01-16T08:01:07.878Z,82.60
2019-01-16T08:02:05.816Z,82.60
2019-01-16T08:03:05.844Z,82.50
2019-01-16T08:04:08.498Z,82.60
2019-01-16T08:05:05.464Z,82.60
2019-01-16T08:06:08.030Z,82.70
2019-01-16T08:07:05.992Z,82.60
2019-01-16T08:08:05.255Z,82.60
2019-01-16T08:09:08.080Z,82.70
2019-01-16T08:10:05.108Z,82.70
2019-01-16T08:11:05.303Z,82.60
2019-01-16T08:12:05.538Z,82.70
2019-01-16T08:13:05.748Z,82.70
2019-01-16T08:14:05.934Z,82.70
2019-01-16T08:15:05.162Z,82.70
2019-01-16T08:16:07.847Z,82.60
2019-01-16T08:17:05.772Z,82.60
2019-01-16T08:18:05.826Z,82.60
2019-01-16T08:19:08.452Z,82.60
2019-01-16T08:20:05.347Z,82.60
2019-01-16T08:21:05.483Z,82.60
2019-01-16T08:22:05.551Z,82.60
2019-01-16T08:23:08.131Z,82.70
2019-01-16T08:24:05.178Z,82.70
2019-01-16T08:25:05.277Z,82.70
2019-01-16T08:26:10.489Z,82.80
2019-01-16T08:27:05.540Z,82.80
2019-01-16T08:28:08.214Z,82.80
2019-01-16T08:29:05.191Z,82.80
2019-01-16T08:30:05.761Z,82.80
2019-01-16T08:31:05.828Z,82.80
2019-01-16T08:32:08.423Z,82.90
2019-01-16T08:33:07.927Z,82.90
2019-01-16T08:34:05.859Z,82.90
2019-01-16T08:35:05.855Z,82.90
2019-01-16T08:36:08.416Z,82.90
2019-01-16T08:37:07.885Z,82.90
2019-01-16T08:38:05.787Z,82.90
2019-01-16T08:39:06.150Z,82.90
2019-01-16T08:40:05.342Z,83.20
2019-01-16T08:41:05.390Z,83.00
2019-01-16T08:42:08.032Z,82.90
2019-01-16T08:43:07.742Z,83.00
2019-01-16T08:44:14.396Z,82.90
2019-01-16T08:45:05.435Z,82.90
2019-01-16T08:46:08.145Z,82.90
2019-01-16T08:47:07.954Z,82.90
2019-01-16T08:48:05.959Z,82.90
2019-01-16T08:49:07.975Z,83.00
2019-01-16T08:50:05.886Z,83.00
2019-01-16T08:51:08.441Z,83.00
2019-01-16T08:52:05.512Z,83.00
2019-01-16T08:53:13.284Z,83.50
2019-01-16T08:54:07.844Z,82.90
2019-01-16T08:55:10.887Z,83.00
2019-01-16T08:56:07.734Z,83.00
2019-01-16T08:57:05.736Z,83.00
2019-01-16T08:58:05.849Z,83.00
2019-01-16T08:59:05.926Z,83.00
2019-01-16T09:00:08.661Z,83.10
2019-01-16T09:01:05.640Z,83.10
2019-01-16T09:02:05.747Z,83.10
2019-01-16T09:03:05.733Z,83.10
2019-01-16T09:04:05.207Z,83.40
2019-01-16T09:05:08.301Z,83.10
2019-01-16T09:06:05.273Z,83.10
2019-01-16T09:07:05.303Z,83.10
2019-01-16T09:08:07.970Z,83.10
2019-01-16T09:09:06.022Z,83.10
2019-01-16T09:10:05.548Z,83.10
2019-01-16T09:11:08.197Z,83.10
2019-01-16T09:12:07.690Z,83.00
2019-01-16T09:13:08.034Z,83.00
2019-01-16T09:14:07.715Z,83.00
2019-01-16T09:15:05.746Z,83.10
2019-01-16T09:16:08.305Z,83.00
2019-01-16T09:17:05.204Z,83.00
2019-01-16T09:18:07.748Z,82.90
2019-01-16T09:19:05.611Z,82.90
2019-01-16T09:20:05.609Z,82.90
2019-01-16T09:21:08.260Z,83.00
2019-01-16T09:22:05.471Z,82.90
2019-01-16T09:23:05.505Z,83.30
2019-01-16T09:24:08.076Z,83.10
2019-01-16T09:25:11.096Z,83.10
2019-01-16T09:26:07.837Z,82.90
2019-01-16T09:27:05.826Z,82.90
2019-01-16T09:28:05.863Z,83.00
2019-01-16T09:29:05.924Z,82.90
2019-01-16T09:30:07.825Z,82.90
2019-01-16T09:31:08.199Z,82.90
2019-01-16T09:32:05.186Z,82.90
2019-01-16T09:33:05.231Z,82.90
2019-01-16T09:34:07.785Z,82.90
2019-01-16T09:35:08.188Z,82.90
2019-01-16T09:36:05.085Z,82.90
2019-01-16T09:37:05.182Z,82.90
2019-01-16T09:38:05.301Z,82.80
2019-01-16T09:39:08.043Z,82.90
2019-01-16T09:40:07.669Z,82.80
2019-01-16T09:41:05.572Z,82.80
2019-01-16T09:42:05.692Z,82.70
2019-01-16T09:43:05.866Z,82.60
2019-01-16T09:44:05.930Z,82.70
2019-01-16T09:45:05.089Z,82.60
2019-01-16T09:46:07.723Z,82.90
2019-01-16T09:47:05.711Z,82.90
2019-01-16T09:48:05.915Z,82.70
2019-01-16T09:49:05.995Z,82.70
2019-01-16T09:50:05.459Z,82.70
2019-01-16T09:51:05.500Z,82.70
2019-01-16T09:52:05.511Z,82.70
2019-01-16T09:53:10.553Z,82.70
2019-01-16T09:54:07.976Z,82.70
2019-01-16T09:55:05.939Z,82.60
2019-01-16T09:56:05.262Z,82.60
2019-01-16T09:57:05.280Z,82.50
2019-01-16T09:58:05.530Z,82.60
2019-01-16T09:59:08.161Z,82.50
2019-01-16T10:00:05.258Z,82.50
2019-01-16T10:01:08.053Z,82.50
2019-01-16T10:02:05.188Z,82.50
2019-01-16T10:03:05.217Z,82.40
2019-01-16T10:04:07.827Z,82.50
2019-01-16T10:05:08.203Z,82.40
2019-01-16T10:06:07.801Z,82.40
2019-01-16T10:07:05.864Z,82.40
2019-01-16T10:08:08.499Z,82.30
2019-01-16T10:09:08.047Z,82.30
2019-01-16T10:10:06.121Z,82.30
2019-01-16T10:11:05.286Z,82.20
2019-01-16T10:12:05.413Z,82.20
2019-01-16T10:13:07.999Z,82.20
2019-01-16T10:14:05.900Z,82.20
2019-01-16T10:15:05.841Z,82.30
2019-01-16T10:16:05.835Z,82.20
2019-01-16T10:17:05.866Z,82.60
2019-01-16T10:18:05.960Z,82.50
2019-01-16T10:19:07.942Z,82.70
2019-01-16T10:20:05.961Z,82.70
2019-01-16T10:21:07.736Z,82.20
2019-01-16T10:22:05.636Z,82.30
2019-01-16T10:23:05.688Z,82.20
2019-01-16T10:24:05.751Z,82.20
2019-01-16T10:25:05.874Z,82.20
2019-01-16T10:26:05.905Z,82.20
2019-01-16T10:27:08.448Z,81.90
2019-01-16T10:28:05.333Z,82.00
2019-01-16T10:29:05.330Z,82.00
2019-01-16T10:30:06.020Z,81.90
2019-01-16T10:31:07.740Z,82.10
2019-01-16T10:32:05.804Z,82.00
2019-01-16T10:33:08.514Z,82.00
2019-01-16T10:34:07.901Z,82.00
2019-01-16T10:35:05.850Z,81.90
2019-01-16T10:36:05.987Z,81.90
2019-01-16T10:37:07.788Z,82.00
2019-01-16T10:38:05.768Z,82.00
2019-01-16T10:39:05.891Z,82.00
2019-01-16T10:40:06.030Z,81.90
2019-01-16T10:41:05.132Z,81.90
2019-01-16T10:42:05.400Z,81.90
2019-01-16T10:43:05.425Z,81.90
2019-01-16T10:44:07.957Z,81.90
2019-01-16T10:45:05.854Z,82.00
2019-01-16T10:46:06.057Z,81.90
2019-01-16T10:47:05.203Z,81.90
2019-01-16T10:48:12.984Z,81.90
2019-01-16T10:49:05.882Z,81.90
2019-01-16T10:50:08.172Z,81.90
2019-01-16T10:51:05.165Z,81.90
2019-01-16T10:52:07.846Z,81.90
2019-01-16T10:53:05.782Z,81.90
2019-01-16T10:54:05.917Z,81.90
2019-01-16T10:55:06.008Z,81.90
2019-01-16T10:56:07.836Z,81.80
2019-01-16T10:57:08.302Z,81.80
2019-01-16T10:58:05.466Z,81.80
2019-01-16T10:59:05.563Z,81.60
2019-01-16T11:00:05.487Z,81.50
2019-01-16T11:01:05.434Z,81.30
2019-01-16T11:02:05.447Z,81.40
2019-01-16T11:03:05.476Z,81.40
2019-01-16T11:04:08.109Z,81.20
2019-01-16T11:05:05.369Z,81.20
2019-01-16T11:06:08.097Z,81.00
2019-01-16T11:07:07.651Z,81.00
2019-01-16T11:08:08.121Z,80.90
2019-01-16T11:09:07.582Z,80.70
2019-01-16T11:10:05.425Z,80.70
2019-01-16T11:11:07.102Z,80.40
2019-01-16T11:12:05.335Z,80.20
2019-01-16T11:13:07.963Z,80.20
2019-01-16T11:14:08.334Z,80.30
2019-01-16T11:15:07.834Z,80.20
2019-01-16T11:16:05.789Z,80.20
2019-01-16T11:17:05.873Z,80.20
2019-01-16T11:18:11.018Z,80.20
2019-01-16T11:19:13.513Z,80.20
2019-01-16T11:20:07.995Z,80.20
2019-01-16T11:21:11.436Z,80.20
2019-01-16T11:22:05.761Z,80.10
2019-01-16T11:23:05.799Z,80.20
2019-01-16T11:24:05.996Z,80.30
2019-01-16T11:25:07.805Z,80.50
2019-01-16T11:26:08.191Z,80.50
2019-01-16T11:27:05.253Z,80.50
2019-01-16T11:28:07.946Z,80.50
2019-01-16T11:29:05.920Z,80.50
2019-01-16T11:30:07.993Z,80.50
2019-01-16T11:31:08.438Z,80.50
2019-01-16T11:32:05.363Z,80.50
2019-01-16T11:33:05.398Z,80.50
2019-01-16T11:34:05.644Z,80.50
2019-01-16T11:35:05.664Z,80.30
2019-01-16T11:36:10.836Z,80.20
2019-01-16T11:37:05.728Z,80.20
2019-01-16T11:38:05.722Z,80.20
2019-01-16T11:39:05.774Z,80.10
2019-01-16T11:40:10.806Z,80.30
2019-01-16T11:41:05.735Z,80.20
2019-01-16T11:42:05.786Z,80.40
2019-01-16T11:43:13.546Z,80.50
2019-01-16T11:44:07.931Z,80.50
2019-01-16T11:45:08.417Z,80.50
2019-01-16T11:46:08.063Z,80.50
2019-01-16T11:47:05.079Z,80.50
2019-01-16T11:48:05.121Z,80.50
2019-01-16T11:49:05.258Z,80.40
2019-01-16T11:50:05.611Z,80.30
2019-01-16T11:51:08.177Z,80.10
2019-01-16T11:52:05.499Z,80.20
2019-01-16T11:53:05.585Z,80.10
2019-01-16T11:54:05.599Z,80.10
2019-01-16T11:55:05.209Z,80.30
2019-01-16T11:56:05.312Z,80.30
2019-01-16T11:57:08.057Z,80.30
2019-01-16T11:58:05.871Z,80.40
2019-01-16T11:59:08.385Z,80.70
2019-01-16T12:00:07.964Z,80.80
2019-01-16T12:01:08.602Z,80.50
2019-01-16T12:02:05.630Z,80.50
2019-01-16T12:03:05.666Z,80.40
2019-01-16T12:04:05.698Z,80.40
2019-01-16T12:05:05.719Z,80.40
2019-01-16T12:06:05.761Z,80.10
2019-01-16T12:07:05.825Z,80.10
2019-01-16T12:08:13.571Z,80.20
2019-01-16T12:09:05.620Z,80.10
2019-01-16T12:10:05.753Z,80.10
2019-01-16T12:11:05.928Z,80.00
2019-01-16T12:12:05.032Z,79.90
2019-01-16T12:13:08.103Z,79.90
2019-01-16T12:14:07.730Z,79.90
2019-01-16T12:15:08.197Z,79.90
2019-01-16T12:16:05.505Z,79.90
2019-01-16T12:17:05.713Z,79.90
2019-01-16T12:18:05.888Z,79.80
2019-01-16T12:19:05.095Z,79.80
2019-01-16T12:20:05.349Z,79.80
2019-01-16T12:21:05.428Z,79.80
2019-01-16T12:22:08.231Z,79.90
2019-01-16T12:23:07.717Z,79.90
2019-01-16T12:24:05.592Z,79.90
2019-01-16T12:25:05.592Z,79.90
2019-01-16T12:26:08.765Z,79.90
2019-01-16T12:27:08.320Z,79.80
2019-01-16T12:28:05.247Z,79.80
2019-01-16T12:29:05.456Z,79.80
2019-01-16T12:30:05.716Z,79.80
2019-01-16T12:31:05.689Z,79.90
2019-01-16T12:32:08.355Z,79.60
2019-01-16T12:33:07.845Z,79.50
2019-01-16T12:34:05.833Z,79.50
2019-01-16T12:35:06.014Z,79.40
2019-01-16T12:36:05.221Z,79.40
2019-01-16T12:37:05.303Z,79.40
2019-01-16T12:38:05.496Z,79.30
2019-01-16T12:39:05.682Z,79.10
2019-01-16T12:40:06.913Z,79.00
2019-01-16T12:41:11.182Z,78.70
2019-01-16T12:42:07.853Z,78.60
2019-01-16T12:43:05.867Z,78.60
2019-01-16T12:44:05.896Z,78.50
2019-01-16T12:45:05.926Z,78.40
2019-01-16T12:46:08.499Z,78.50
2019-01-16T12:47:05.380Z,78.50
2019-01-16T12:48:08.055Z,78.60
2019-01-16T12:49:06.447Z,78.70
2019-01-16T12:50:05.510Z,78.50
2019-01-16T12:51:08.094Z,78.40
2019-01-16T12:52:05.467Z,78.40